Tullinge, Sweden

3:14 PM CEST on July 30, 2016 (GMT +0200)
Skyttbrinksvägen | | Change Station

Elev 213 ft 59.20 °N, 17.88 °E | Updated 23 seconds ago

Clear
Clear
77.4 °F
Feels Like 79 °F
N
3.7
Wind Variable Wind from South
Gusts 7.5 mph

Today
High -- | Low -- °F
--% Chance of Precip.
Yesterday
High -- | Low -- °F
Precip. -- in
Pressure 29.62 in
Visibility -9999.0 miles
Clouds
Heat Index 79 °F
Dew Point 59 °F
Humidity 52%
Rainfall 0.00 in
Snow Depth Not available.
4:30 AM 9:17 PM
Waning Crescent, 13% visible
METAR ESSB 301250Z 19009KT 150V230 CAVOK 25/09 Q1003
Pressure 29.62 in
Visibility -9999.0 miles
Clouds
Heat Index 79 °F
Dew Point 59 °F
Humidity 52%
Rainfall 0.00 in
Snow Depth Not available.
4:30 AM 9:17 PM
Waning Crescent, 13% visible
METAR ESSB 301250Z 19009KT 150V230 CAVOK 25/09 Q1003

10-Day Weather Forecast

×

Almanac

Astronomy

Jul. 30, 2016 Rise Set
Actual Time
Civil Twilight
Nautical Twilight
Astronomical Twilight
Moon
Length of Visible Light
Length of Day
Tomorrow will be .
, % of the Moon is Illuminated

Today's Extremes

Country Highs Country Lows

Community

WunderPhotos

Upload Photos

1,928,555 photos uploaded!

WunderBlog® & News

Nearby

Air Quality

  Air Quality AQ Index Pollutant
Not available.

Snow Depth

Station Depth Elevation

Earthquake Activity

City Distance Mag. Time & Date
Minimum magnitude displayed is 2.5.

Coastal Water Temperatures

Place Temperature

Stations

Nearby Weather Stations

Station Location Temp. Windchill Dew Point Humidity Wind Precip. Elev Updated Type